Camp Lake, WI (53109)

8:40 AM CST on December 22, 2014 (GMT -0600)
Center Lake | Change Station
CLOSE
Current Station
Personal Weather Station
Location: Salem, WI
Elevation: 800 ft
Nearby Weather Stations

Elev 800 ft 42.53 °N, 88.12 °W | Updated 1 minute ago

Overcast
Overcast
32.3 °F
Feels Like 32 °F
N
1.0
Wind Variable Wind from ESE
Gusts 3.0 mph

Today
High -- | Low -- °F
--% Chance of Precip.
Yesterday
High -- | Low -- °F
Precip. -- in
7:19 AM 4:22 PM
New Moon, 0% visible
Pressure 29.95 in
Visibility 3.0 miles
Clouds Mostly Cloudy 4500 ft
Overcast 6500 ft
Windchill 32 °F
Dew Point 31 °F
Humidity 96%
Rainfall -999.00 in
Snow Depth Not available.
UV 0 out of 12
Pollen .10 out of 12
Air Quality Not available.
Flu Activity Not available.
METAR KENW 221353Z 13007KT 3SM BR BKN045 OVC065 01/M01 A2992 RMK AO2 SLP140 T00111011

More Conditions Fewer Conditions

Pressure 29.95 in
Visibility 3.0 miles
Clouds Mostly Cloudy 4500 ft
Overcast 6500 ft
Windchill 32 °F
Dew Point 31 °F
Humidity 96%
Rainfall -999.00 in
Snow Depth Not available.
UV 0 out of 12
Pollen .10 out of 12
Air Quality Not available.
Flu Activity Not available.
METAR KENW 221353Z 13007KT 3SM BR BKN045 OVC065 01/M01 A2992 RMK AO2 SLP140 T00111011

More Conditions Fewer Conditions

10-Day Weather Forecast

Almanac

Astronomy

Dec. 22, 2014 Rise Set
Actual Time
Civil Twilight
Nautical Twilight
Astronomical Twilight
Moon
Length of Visible Light
Length of Day
Tomorrow will be .
, % of the Moon is Illuminated

Today's Extremes

State Highs State Lows

Community

WunderPhotos

Upload Photos

1,779,608 photos uploaded!

WunderBlogs® & News

Nearby

Air Quality

  Air Quality AQ Index Pollutant
Not available.

Snow Depth

Station Depth Elevation

Earthquake Activity

City Distance Mag. Time & Date
Minimum magnitude displayed is 2.5.

Coastal Water Temperatures

Place Temperature

Nearby Weather Stations